Beargrass, North Carolina
Current Conditions -  °F | °C
As of 1:55 AM on Saturday 25 Oct 2014 (Local Time) from KOCW Reporting Station
Overcast Overcast  
Wind Chill: 46°   Ceiling: 700
Heat Index: 46°   Visibility: 1.7mi
Dew Point: 45°   Wind: 0mph
Humidity: 97%   Direction: NA
Pressure: 29.98"   Gusts: NA
Location:  35.7282°N, 77.0495°W
Report Text: KOCW 250555Z AUTO 00000KT 1 3/4SM VV007 08/07 A2998 RMK AO2 VIS 3/4V5 T00770073 10129 20077 402070077
Loading
Personal Weather Stations






























Interactive Weather Map
Tropical Storm Tracking
New forecast layout! Learn more

10-Day Weather Forecast

Advertisements
Track Severe Weather on mobile